sensor_id;sensor_type;location;lat;lon;timestamp;temperature;humidity
51867;DHT22;52862;52.504;13.480;2023-04-06T00:00:51;4.50;99.90
51867;DHT22;52862;52.504;13.480;2023-04-06T00:03:18;5.20;99.90
51867;DHT22;52862;52.504;13.480;2023-04-06T00:05:46;5.20;99.90
51867;DHT22;52862;52.504;13.480;2023-04-06T00:08:13;5.20;99.90
51867;DHT22;52862;52.504;13.480;2023-04-06T00:10:40;5.00;99.90
51867;DHT22;52862;52.504;13.480;2023-04-06T00:13:08;4.50;99.90
51867;DHT22;52862;52.504;13.480;2023-04-06T00:15:35;5.40;99.90
51867;DHT22;52862;52.504;13.480;2023-04-06T00:18:02;4.70;99.90
51867;DHT22;52862;52.504;13.480;2023-04-06T00:20:29;5.10;99.90
51867;DHT22;52862;52.504;13.480;2023-04-06T00:22:56;5.10;99.90
51867;DHT22;52862;52.504;13.480;2023-04-06T00:25:23;5.10;99.90
51867;DHT22;52862;52.504;13.480;2023-04-06T00:27:49;5.00;99.90
51867;DHT22;52862;52.504;13.480;2023-04-06T00:30:17;5.10;99.90
51867;DHT22;52862;52.504;13.480;2023-04-06T00:32:44;5.10;99.90
51867;DHT22;52862;52.504;13.480;2023-04-06T00:35:11;5.10;99.90
51867;DHT22;52862;52.504;13.480;2023-04-06T00:37:38;5.00;99.90
51867;DHT22;52862;52.504;13.480;2023-04-06T00:40:06;5.20;99.90
51867;DHT22;52862;52.504;13.480;2023-04-06T00:42:33;5.00;99.90
51867;DHT22;52862;52.504;13.480;2023-04-06T00:45:01;5.00;99.90
51867;DHT22;52862;52.504;13.480;2023-04-06T00:47:28;4.90;99.90
51867;DHT22;52862;52.504;13.480;2023-04-06T00:49:56;4.90;99.90
51867;DHT22;52862;52.504;13.480;2023-04-06T00:52:23;5.00;99.90
51867;DHT22;52862;52.504;13.480;2023-04-06T00:54:50;5.00;99.90
51867;DHT22;52862;52.504;13.480;2023-04-06T00:57:17;5.00;99.90
51867;DHT22;52862;52.504;13.480;2023-04-06T00:59:45;4.90;99.90
51867;DHT22;52862;52.504;13.480;2023-04-06T01:02:12;4.90;99.90
51867;DHT22;52862;52.504;13.480;2023-04-06T01:04:40;4.80;99.90
51867;DHT22;52862;52.504;13.480;2023-04-06T01:07:07;4.90;99.90
51867;DHT22;52862;52.504;13.480;2023-04-06T01:09:33;4.90;99.90
51867;DHT22;52862;52.504;13.480;2023-04-06T01:12:00;4.80;99.90
51867;DHT22;52862;52.504;13.480;2023-04-06T01:14:28;6.40;99.90
51867;DHT22;52862;52.504;13.480;2023-04-06T01:16:58;4.80;99.90
51867;DHT22;52862;52.504;13.480;2023-04-06T01:19:26;5.00;99.90
51867;DHT22;52862;52.504;13.480;2023-04-06T01:21:54;4.90;99.90
51867;DHT22;52862;52.504;13.480;2023-04-06T01:24:22;4.70;99.90
51867;DHT22;52862;52.504;13.480;2023-04-06T01:26:50;4.70;99.90
51867;DHT22;52862;52.504;13.480;2023-04-06T01:29:17;4.70;99.90
51867;DHT22;52862;52.504;13.480;2023-04-06T01:31:44;4.80;99.90
51867;DHT22;52862;52.504;13.480;2023-04-06T01:36:38;5.00;99.90
51867;DHT22;52862;52.504;13.480;2023-04-06T01:39:05;4.80;99.90
51867;DHT22;52862;52.504;13.480;2023-04-06T01:41:32;4.70;99.90
51867;DHT22;52862;52.504;13.480;2023-04-06T01:43:59;5.30;99.90
51867;DHT22;52862;52.504;13.480;2023-04-06T01:46:26;4.70;99.90
51867;DHT22;52862;52.504;13.480;2023-04-06T01:48:53;4.80;99.90
51867;DHT22;52862;52.504;13.480;2023-04-06T01:51:20;4.50;99.90
51867;DHT22;52862;52.504;13.480;2023-04-06T01:53:47;4.60;99.90
51867;DHT22;52862;52.504;13.480;2023-04-06T01:56:14;4.30;99.90
51867;DHT22;52862;52.504;13.480;2023-04-06T01:58:42;4.60;99.90
51867;DHT22;52862;52.504;13.480;2023-04-06T02:01:08;4.90;99.90
51867;DHT22;52862;52.504;13.480;2023-04-06T02:03:35;4.60;99.90
51867;DHT22;52862;52.504;13.480;2023-04-06T02:06:02;4.50;99.90
51867;DHT22;52862;52.504;13.480;2023-04-06T02:08:29;4.70;99.90
51867;DHT22;52862;52.504;13.480;2023-04-06T02:10:56;4.50;99.90
51867;DHT22;52862;52.504;13.480;2023-04-06T02:13:23;4.50;99.90
51867;DHT22;52862;52.504;13.480;2023-04-06T02:15:50;5.70;99.90
51867;DHT22;52862;52.504;13.480;2023-04-06T02:18:18;4.40;99.90
51867;DHT22;52862;52.504;13.480;2023-04-06T02:20:44;4.50;99.90
51867;DHT22;52862;52.504;13.480;2023-04-06T02:23:11;3.60;99.90
51867;DHT22;52862;52.504;13.480;2023-04-06T02:25:38;4.80;99.90
51867;DHT22;52862;52.504;13.480;2023-04-06T02:28:06;4.20;99.90
51867;DHT22;52862;52.504;13.480;2023-04-06T02:30:33;4.30;99.90
51867;DHT22;52862;52.504;13.480;2023-04-06T02:33:00;4.40;99.90
51867;DHT22;52862;52.504;13.480;2023-04-06T02:35:28;4.50;99.90
51867;DHT22;52862;52.504;13.480;2023-04-06T02:37:55;4.20;99.90
51867;DHT22;52862;52.504;13.480;2023-04-06T02:40:22;4.60;99.90
51867;DHT22;52862;52.504;13.480;2023-04-06T02:42:49;4.40;99.90
51867;DHT22;52862;52.504;13.480;2023-04-06T02:45:16;4.10;99.90
51867;DHT22;52862;52.504;13.480;2023-04-06T02:47:42;4.30;99.90
51867;DHT22;52862;52.504;13.480;2023-04-06T02:50:10;4.20;99.90
51867;DHT22;52862;52.504;13.480;2023-04-06T02:52:37;4.20;99.90
51867;DHT22;52862;52.504;13.480;2023-04-06T02:55:05;3.70;99.90
51867;DHT22;52862;52.504;13.480;2023-04-06T02:57:33;4.20;99.90
51867;DHT22;52862;52.504;13.480;2023-04-06T03:00:00;4.20;99.90
51867;DHT22;52862;52.504;13.480;2023-04-06T03:02:27;4.30;99.90
51867;DHT22;52862;52.504;13.480;2023-04-06T03:04:54;3.90;99.90
51867;DHT22;52862;52.504;13.480;2023-04-06T03:07:22;4.00;99.90
51867;DHT22;52862;52.504;13.480;2023-04-06T03:09:49;3.90;99.90
51867;DHT22;52862;52.504;13.480;2023-04-06T03:12:15;4.00;99.90
51867;DHT22;52862;52.504;13.480;2023-04-06T03:14:42;3.70;99.90
51867;DHT22;52862;52.504;13.480;2023-04-06T03:17:09;4.40;99.90
51867;DHT22;52862;52.504;13.480;2023-04-06T03:19:42;3.50;99.90
51867;DHT22;52862;52.504;13.480;2023-04-06T03:22:09;3.90;99.90
51867;DHT22;52862;52.504;13.480;2023-04-06T03:24:36;3.70;99.90
51867;DHT22;52862;52.504;13.480;2023-04-06T03:27:03;3.60;99.90
51867;DHT22;52862;52.504;13.480;2023-04-06T03:29:30;3.60;99.90
51867;DHT22;52862;52.504;13.480;2023-04-06T03:34:24;3.50;99.90
51867;DHT22;52862;52.504;13.480;2023-04-06T03:39:36;3.50;99.90
51867;DHT22;52862;52.504;13.480;2023-04-06T03:42:03;4.10;99.90
51867;DHT22;52862;52.504;13.480;2023-04-06T03:46:57;3.60;99.90
51867;DHT22;52862;52.504;13.480;2023-04-06T03:51:51;3.20;99.90
51867;DHT22;52862;52.504;13.480;2023-04-06T03:54:17;3.40;99.90
51867;DHT22;52862;52.504;13.480;2023-04-06T03:56:45;5.00;99.90
51867;DHT22;52862;52.504;13.480;2023-04-06T03:59:12;3.00;99.90
51867;DHT22;52862;52.504;13.480;2023-04-06T04:01:38;3.20;99.90
51867;DHT22;52862;52.504;13.480;2023-04-06T04:04:05;2.90;99.90
51867;DHT22;52862;52.504;13.480;2023-04-06T04:09:00;3.30;99.90
51867;DHT22;52862;52.504;13.480;2023-04-06T04:11:27;3.30;99.90
51867;DHT22;52862;52.504;13.480;2023-04-06T04:13:54;3.00;99.90
51867;DHT22;52862;52.504;13.480;2023-04-06T04:16:21;3.10;99.90
51867;DHT22;52862;52.504;13.480;2023-04-06T04:18:48;2.80;99.90
51867;DHT22;52862;52.504;13.480;2023-04-06T04:21:15;3.00;99.90
51867;DHT22;52862;52.504;13.480;2023-04-06T04:23:41;3.00;99.90
51867;DHT22;52862;52.504;13.480;2023-04-06T04:26:08;2.90;99.90
51867;DHT22;52862;52.504;13.480;2023-04-06T04:28:36;3.00;99.90
51867;DHT22;52862;52.504;13.480;2023-04-06T04:31:03;2.60;99.90
51867;DHT22;52862;52.504;13.480;2023-04-06T04:35:57;2.80;99.90
51867;DHT22;52862;52.504;13.480;2023-04-06T04:38:24;2.40;99.90
51867;DHT22;52862;52.504;13.480;2023-04-06T04:43:18;2.60;99.90
51867;DHT22;52862;52.504;13.480;2023-04-06T04:48:13;2.60;99.90
51867;DHT22;52862;52.504;13.480;2023-04-06T05:00:34;3.50;99.90
51867;DHT22;52862;52.504;13.480;2023-04-06T05:03:02;2.70;99.90
51867;DHT22;52862;52.504;13.480;2023-04-06T05:05:31;2.70;99.90
51867;DHT22;52862;52.504;13.480;2023-04-06T05:07:58;2.80;99.90
51867;DHT22;52862;52.504;13.480;2023-04-06T05:10:25;2.70;99.90
51867;DHT22;52862;52.504;13.480;2023-04-06T05:12:52;2.80;99.90
51867;DHT22;52862;52.504;13.480;2023-04-06T05:15:19;3.00;99.90
51867;DHT22;52862;52.504;13.480;2023-04-06T05:17:46;3.10;99.90
51867;DHT22;52862;52.504;13.480;2023-04-06T05:20:13;3.50;99.90
51867;DHT22;52862;52.504;13.480;2023-04-06T05:22:41;2.90;99.90
51867;DHT22;52862;52.504;13.480;2023-04-06T05:25:08;3.10;99.90
51867;DHT22;52862;52.504;13.480;2023-04-06T05:27:35;3.10;99.90
51867;DHT22;52862;52.504;13.480;2023-04-06T05:30:02;3.20;99.90
51867;DHT22;52862;52.504;13.480;2023-04-06T05:34:56;3.50;99.90
51867;DHT22;52862;52.504;13.480;2023-04-06T05:37:23;3.40;99.90
51867;DHT22;52862;52.504;13.480;2023-04-06T05:39:51;3.50;99.90
51867;DHT22;52862;52.504;13.480;2023-04-06T05:42:18;3.80;99.90
51867;DHT22;52862;52.504;13.480;2023-04-06T05:44:44;3.90;99.90
51867;DHT22;52862;52.504;13.480;2023-04-06T05:47:11;4.40;99.90
51867;DHT22;52862;52.504;13.480;2023-04-06T05:49:38;3.70;99.90
51867;DHT22;52862;52.504;13.480;2023-04-06T05:54:32;4.00;99.90
51867;DHT22;52862;52.504;13.480;2023-04-06T05:57:01;4.10;99.90
51867;DHT22;52862;52.504;13.480;2023-04-06T05:59:29;4.40;99.90
51867;DHT22;52862;52.504;13.480;2023-04-06T06:01:56;4.50;99.90
51867;DHT22;52862;52.504;13.480;2023-04-06T06:06:50;3.80;99.90
51867;DHT22;52862;52.504;13.480;2023-04-06T06:09:17;4.00;99.90
51867;DHT22;52862;52.504;13.480;2023-04-06T06:11:44;4.30;99.90
51867;DHT22;52862;52.504;13.480;2023-04-06T06:14:11;4.90;99.90
51867;DHT22;52862;52.504;13.480;2023-04-06T06:16:38;5.00;99.90
51867;DHT22;52862;52.504;13.480;2023-04-06T06:19:05;5.40;99.90
51867;DHT22;52862;52.504;13.480;2023-04-06T06:21:32;4.50;99.90
51867;DHT22;52862;52.504;13.480;2023-04-06T06:26:26;5.60;99.90
51867;DHT22;52862;52.504;13.480;2023-04-06T06:31:22;5.70;99.90
51867;DHT22;52862;52.504;13.480;2023-04-06T06:33:49;5.50;99.90
51867;DHT22;52862;52.504;13.480;2023-04-06T06:38:44;5.50;99.90
51867;DHT22;52862;52.504;13.480;2023-04-06T06:41:11;5.40;99.90
51867;DHT22;52862;52.504;13.480;2023-04-06T06:43:38;5.70;99.90
51867;DHT22;52862;52.504;13.480;2023-04-06T06:46:05;5.60;99.90
51867;DHT22;52862;52.504;13.480;2023-04-06T06:48:33;6.20;99.90
51867;DHT22;52862;52.504;13.480;2023-04-06T06:51:00;6.00;99.90
51867;DHT22;52862;52.504;13.480;2023-04-06T06:53:27;6.20;99.90
51867;DHT22;52862;52.504;13.480;2023-04-06T06:55:55;6.60;99.90
51867;DHT22;52862;52.504;13.480;2023-04-06T06:58:22;7.70;99.90
51867;DHT22;52862;52.504;13.480;2023-04-06T07:03:16;6.80;99.90
51867;DHT22;52862;52.504;13.480;2023-04-06T07:05:46;6.80;99.90
51867;DHT22;52862;52.504;13.480;2023-04-06T07:08:18;7.00;99.90
51867;DHT22;52862;52.504;13.480;2023-04-06T07:10:45;7.10;99.90
51867;DHT22;52862;52.504;13.480;2023-04-06T07:13:12;7.90;99.90
51867;DHT22;52862;52.504;13.480;2023-04-06T07:15:44;7.50;99.90
51867;DHT22;52862;52.504;13.480;2023-04-06T07:18:11;8.80;99.90
51867;DHT22;52862;52.504;13.480;2023-04-06T07:20:38;7.80;99.90
51867;DHT22;52862;52.504;13.480;2023-04-06T07:23:06;7.90;99.90
51867;DHT22;52862;52.504;13.480;2023-04-06T07:25:33;7.90;99.90
51867;DHT22;52862;52.504;13.480;2023-04-06T07:28:01;8.10;99.90
51867;DHT22;52862;52.504;13.480;2023-04-06T07:30:28;8.20;99.90
51867;DHT22;52862;52.504;13.480;2023-04-06T07:32:57;8.10;99.90
51867;DHT22;52862;52.504;13.480;2023-04-06T07:35:26;8.20;99.90
51867;DHT22;52862;52.504;13.480;2023-04-06T07:37:54;8.30;99.90
51867;DHT22;52862;52.504;13.480;2023-04-06T07:40:22;9.20;99.90
51867;DHT22;52862;52.504;13.480;2023-04-06T07:42:49;8.40;99.90
51867;DHT22;52862;52.504;13.480;2023-04-06T07:45:16;8.60;99.90
51867;DHT22;52862;52.504;13.480;2023-04-06T07:47:43;8.70;99.90
51867;DHT22;52862;52.504;13.480;2023-04-06T07:50:10;8.60;99.90
51867;DHT22;52862;52.504;13.480;2023-04-06T07:52:38;8.50;99.90
51867;DHT22;52862;52.504;13.480;2023-04-06T07:55:05;8.60;99.90
51867;DHT22;52862;52.504;13.480;2023-04-06T07:57:33;8.50;99.90
51867;DHT22;52862;52.504;13.480;2023-04-06T08:00:00;8.40;99.90
51867;DHT22;52862;52.504;13.480;2023-04-06T08:02:27;8.70;99.90
51867;DHT22;52862;52.504;13.480;2023-04-06T08:04:54;8.90;99.90
51867;DHT22;52862;52.504;13.480;2023-04-06T08:07:21;9.20;99.90
51867;DHT22;52862;52.504;13.480;2023-04-06T08:09:48;9.50;99.90
51867;DHT22;52862;52.504;13.480;2023-04-06T08:12:15;9.50;99.90
51867;DHT22;52862;52.504;13.480;2023-04-06T08:14:45;9.60;99.90
51867;DHT22;52862;52.504;13.480;2023-04-06T08:17:12;9.60;99.90
51867;DHT22;52862;52.504;13.480;2023-04-06T08:19:39;10.10;99.90
51867;DHT22;52862;52.504;13.480;2023-04-06T08:22:06;9.80;99.90
51867;DHT22;52862;52.504;13.480;2023-04-06T08:24:33;10.00;99.90
51867;DHT22;52862;52.504;13.480;2023-04-06T08:27:00;9.90;99.90
51867;DHT22;52862;52.504;13.480;2023-04-06T08:29:27;10.00;99.90
51867;DHT22;52862;52.504;13.480;2023-04-06T08:31:55;9.80;99.90
51867;DHT22;52862;52.504;13.480;2023-04-06T08:34:22;9.50;99.90
51867;DHT22;52862;52.504;13.480;2023-04-06T08:36:50;9.70;99.90
51867;DHT22;52862;52.504;13.480;2023-04-06T08:39:17;9.60;99.90
51867;DHT22;52862;52.504;13.480;2023-04-06T08:41:50;9.80;99.60
51867;DHT22;52862;52.504;13.480;2023-04-06T08:44:18;9.80;99.90
51867;DHT22;52862;52.504;13.480;2023-04-06T08:46:44;10.10;99.90
51867;DHT22;52862;52.504;13.480;2023-04-06T08:49:13;10.50;99.50
51867;DHT22;52862;52.504;13.480;2023-04-06T08:51:42;10.40;98.00
51867;DHT22;52862;52.504;13.480;2023-04-06T08:54:09;10.60;97.50
51867;DHT22;52862;52.504;13.480;2023-04-06T08:56:38;10.50;95.90
51867;DHT22;52862;52.504;13.480;2023-04-06T08:59:06;10.60;96.20
51867;DHT22;52862;52.504;13.480;2023-04-06T09:01:35;10.90;96.10
51867;DHT22;52862;52.504;13.480;2023-04-06T09:04:05;10.90;96.90
51867;DHT22;52862;52.504;13.480;2023-04-06T09:06:37;9.60;99.90
51867;DHT22;52862;52.504;13.480;2023-04-06T09:09:04;10.10;99.90
51867;DHT22;52862;52.504;13.480;2023-04-06T09:11:42;10.10;96.40
51867;DHT22;52862;52.504;13.480;2023-04-06T09:14:10;9.90;96.10
51867;DHT22;52862;52.504;13.480;2023-04-06T09:16:41;10.30;97.00
51867;DHT22;52862;52.504;13.480;2023-04-06T09:19:09;10.40;96.20
51867;DHT22;52862;52.504;13.480;2023-04-06T09:21:37;10.70;96.10
51867;DHT22;52862;52.504;13.480;2023-04-06T09:24:07;10.80;99.90
51867;DHT22;52862;52.504;13.480;2023-04-06T09:26:44;10.90;94.80
51867;DHT22;52862;52.504;13.480;2023-04-06T09:29:22;10.70;94.90
51867;DHT22;52862;52.504;13.480;2023-04-06T09:31:51;10.60;94.10
51867;DHT22;52862;52.504;13.480;2023-04-06T09:34:21;11.00;94.10
51867;DHT22;52862;52.504;13.480;2023-04-06T09:36:49;11.80;94.30
51867;DHT22;52862;52.504;13.480;2023-04-06T09:39:21;11.20;94.90
51867;DHT22;52862;52.504;13.480;2023-04-06T09:41:50;11.10;94.60
51867;DHT22;52862;52.504;13.480;2023-04-06T09:44:18;11.60;93.10
51867;DHT22;52862;52.504;13.480;2023-04-06T09:46:46;11.90;92.00
51867;DHT22;52862;52.504;13.480;2023-04-06T09:49:27;12.00;91.80
51867;DHT22;52862;52.504;13.480;2023-04-06T09:51:58;11.90;91.00
51867;DHT22;52862;52.504;13.480;2023-04-06T09:54:28;12.00;90.60
51867;DHT22;52862;52.504;13.480;2023-04-06T09:56:58;12.30;90.60
51867;DHT22;52862;52.504;13.480;2023-04-06T09:59:36;11.50;90.60
51867;DHT22;52862;52.504;13.480;2023-04-06T10:02:05;10.60;91.00
51867;DHT22;52862;52.504;13.480;2023-04-06T10:04:38;10.30;91.30
51867;DHT22;52862;52.504;13.480;2023-04-06T10:07:09;9.40;92.00
51867;DHT22;52862;52.504;13.480;2023-04-06T10:09:38;10.80;92.30
51867;DHT22;52862;52.504;13.480;2023-04-06T10:12:06;11.30;92.10
51867;DHT22;52862;52.504;13.480;2023-04-06T10:14:34;11.10;91.20
51867;DHT22;52862;52.504;13.480;2023-04-06T10:17:04;11.60;91.10
51867;DHT22;52862;52.504;13.480;2023-04-06T10:19:49;11.50;90.30
51867;DHT22;52862;52.504;13.480;2023-04-06T10:22:24;11.80;90.70
51867;DHT22;52862;52.504;13.480;2023-04-06T10:24:52;11.70;87.40
51867;DHT22;52862;52.504;13.480;2023-04-06T10:27:27;11.50;84.60
51867;DHT22;52862;52.504;13.480;2023-04-06T10:30:10;11.20;85.10
51867;DHT22;52862;52.504;13.480;2023-04-06T10:32:38;10.40;86.20
51867;DHT22;52862;52.504;13.480;2023-04-06T10:35:10;10.30;87.20
51867;DHT22;52862;52.504;13.480;2023-04-06T10:37:50;10.30;88.40
51867;DHT22;52862;52.504;13.480;2023-04-06T10:40:22;10.40;88.50
51867;DHT22;52862;52.504;13.480;2023-04-06T10:42:50;10.90;87.10
51867;DHT22;52862;52.504;13.480;2023-04-06T10:45:22;11.50;84.90
51867;DHT22;52862;52.504;13.480;2023-04-06T10:47:49;12.10;85.60
51867;DHT22;52862;52.504;13.480;2023-04-06T10:50:16;12.20;80.60
51867;DHT22;52862;52.504;13.480;2023-04-06T10:52:44;11.50;93.90
51867;DHT22;52862;52.504;13.480;2023-04-06T10:55:13;11.60;84.10
51867;DHT22;52862;52.504;13.480;2023-04-06T10:57:41;11.10;81.80
51867;DHT22;52862;52.504;13.480;2023-04-06T11:00:08;11.60;85.00
51867;DHT22;52862;52.504;13.480;2023-04-06T11:02:38;11.50;86.20
51867;DHT22;52862;52.504;13.480;2023-04-06T11:05:06;11.00;87.60
51867;DHT22;52862;52.504;13.480;2023-04-06T11:07:33;10.50;87.30
51867;DHT22;52862;52.504;13.480;2023-04-06T11:10:00;11.20;84.90
51867;DHT22;52862;52.504;13.480;2023-04-06T11:12:44;11.00;84.80
51867;DHT22;52862;52.504;13.480;2023-04-06T11:15:11;10.90;85.40
51867;DHT22;52862;52.504;13.480;2023-04-06T11:17:38;10.80;86.20
51867;DHT22;52862;52.504;13.480;2023-04-06T11:20:10;11.30;85.60
51867;DHT22;52862;52.504;13.480;2023-04-06T11:22:48;11.20;84.40
51867;DHT22;52862;52.504;13.480;2023-04-06T11:25:15;11.70;85.10
51867;DHT22;52862;52.504;13.480;2023-04-06T11:27:44;12.10;83.30
51867;DHT22;52862;52.504;13.480;2023-04-06T11:30:12;12.10;82.00
51867;DHT22;52862;52.504;13.480;2023-04-06T11:32:40;12.30;83.40
51867;DHT22;52862;52.504;13.480;2023-04-06T11:35:11;12.00;81.70
51867;DHT22;52862;52.504;13.480;2023-04-06T11:37:38;12.70;81.50
51867;DHT22;52862;52.504;13.480;2023-04-06T11:40:08;12.70;77.10
51867;DHT22;52862;52.504;13.480;2023-04-06T11:42:35;12.40;78.90
51867;DHT22;52862;52.504;13.480;2023-04-06T11:45:04;14.50;84.00
51867;DHT22;52862;52.504;13.480;2023-04-06T11:47:34;12.40;81.30
51867;DHT22;52862;52.504;13.480;2023-04-06T11:50:08;12.20;81.30
51867;DHT22;52862;52.504;13.480;2023-04-06T11:52:36;12.50;81.50
51867;DHT22;52862;52.504;13.480;2023-04-06T11:55:11;12.50;80.60
51867;DHT22;52862;52.504;13.480;2023-04-06T11:57:39;12.20;79.70
51867;DHT22;52862;52.504;13.480;2023-04-06T12:00:09;12.20;80.50
51867;DHT22;52862;52.504;13.480;2023-04-06T12:02:36;11.90;79.80
51867;DHT22;52862;52.504;13.480;2023-04-06T12:05:04;12.20;81.00
51867;DHT22;52862;52.504;13.480;2023-04-06T12:07:31;12.40;81.20
51867;DHT22;52862;52.504;13.480;2023-04-06T12:09:58;12.30;80.20
51867;DHT22;52862;52.504;13.480;2023-04-06T12:12:25;12.40;80.50
51867;DHT22;52862;52.504;13.480;2023-04-06T12:14:52;12.70;81.30
51867;DHT22;52862;52.504;13.480;2023-04-06T12:17:20;13.50;78.80
51867;DHT22;52862;52.504;13.480;2023-04-06T12:19:47;13.60;77.30
51867;DHT22;52862;52.504;13.480;2023-04-06T12:22:14;14.10;77.20
51867;DHT22;52862;52.504;13.480;2023-04-06T12:24:46;13.90;75.60
51867;DHT22;52862;52.504;13.480;2023-04-06T12:27:13;14.20;74.50
51867;DHT22;52862;52.504;13.480;2023-04-06T12:29:40;14.10;73.80
51867;DHT22;52862;52.504;13.480;2023-04-06T12:32:07;13.70;75.90
51867;DHT22;52862;52.504;13.480;2023-04-06T12:34:35;13.50;76.30
51867;DHT22;52862;52.504;13.480;2023-04-06T12:37:02;13.30;75.90
51867;DHT22;52862;52.504;13.480;2023-04-06T12:39:29;13.50;76.90
51867;DHT22;52862;52.504;13.480;2023-04-06T12:41:56;13.10;77.40
51867;DHT22;52862;52.504;13.480;2023-04-06T12:44:23;13.00;76.40
51867;DHT22;52862;52.504;13.480;2023-04-06T12:46:52;13.50;77.10
51867;DHT22;52862;52.504;13.480;2023-04-06T12:49:19;13.40;73.50
51867;DHT22;52862;52.504;13.480;2023-04-06T12:51:47;13.50;74.80
51867;DHT22;52862;52.504;13.480;2023-04-06T12:54:13;12.90;76.20
51867;DHT22;52862;52.504;13.480;2023-04-06T12:56:40;13.00;76.40
51867;DHT22;52862;52.504;13.480;2023-04-06T12:59:07;13.00;77.10
51867;DHT22;52862;52.504;13.480;2023-04-06T13:01:34;12.90;77.40
51867;DHT22;52862;52.504;13.480;2023-04-06T13:04:01;12.70;77.40
51867;DHT22;52862;52.504;13.480;2023-04-06T13:06:28;12.70;78.20
51867;DHT22;52862;52.504;13.480;2023-04-06T13:08:57;13.10;80.30
51867;DHT22;52862;52.504;13.480;2023-04-06T13:11:25;13.90;79.00
51867;DHT22;52862;52.504;13.480;2023-04-06T13:13:54;14.60;75.70
51867;DHT22;52862;52.504;13.480;2023-04-06T13:16:21;15.10;74.00
51867;DHT22;52862;52.504;13.480;2023-04-06T13:18:48;15.50;71.50
51867;DHT22;52862;52.504;13.480;2023-04-06T13:21:15;15.70;71.00
51867;DHT22;52862;52.504;13.480;2023-04-06T13:23:42;16.10;71.60
51867;DHT22;52862;52.504;13.480;2023-04-06T13:26:10;16.30;70.30
51867;DHT22;52862;52.504;13.480;2023-04-06T13:28:37;16.50;68.80
51867;DHT22;52862;52.504;13.480;2023-04-06T13:31:05;16.40;69.60
51867;DHT22;52862;52.504;13.480;2023-04-06T13:33:32;16.70;68.50
51867;DHT22;52862;52.504;13.480;2023-04-06T13:35:59;16.30;67.70
51867;DHT22;52862;52.504;13.480;2023-04-06T13:38:26;16.30;70.50
51867;DHT22;52862;52.504;13.480;2023-04-06T13:40:56;17.10;69.80
51867;DHT22;52862;52.504;13.480;2023-04-06T13:43:23;16.70;67.20
51867;DHT22;52862;52.504;13.480;2023-04-06T13:45:54;16.10;67.90
51867;DHT22;52862;52.504;13.480;2023-04-06T13:48:22;14.20;66.80
51867;DHT22;52862;52.504;13.480;2023-04-06T13:50:49;14.40;70.30
51867;DHT22;52862;52.504;13.480;2023-04-06T13:53:15;15.30;69.80
51867;DHT22;52862;52.504;13.480;2023-04-06T13:55:42;16.70;67.30
51867;DHT22;52862;52.504;13.480;2023-04-06T13:58:09;21.10;60.30
51867;DHT22;52862;52.504;13.480;2023-04-06T14:00:37;22.20;53.30
51867;DHT22;52862;52.504;13.480;2023-04-06T14:03:04;24.60;49.60
51867;DHT22;52862;52.504;13.480;2023-04-06T14:05:31;25.10;46.90
51867;DHT22;52862;52.504;13.480;2023-04-06T14:07:58;25.40;45.70
51867;DHT22;52862;52.504;13.480;2023-04-06T14:10:27;22.70;48.40
51867;DHT22;52862;52.504;13.480;2023-04-06T14:12:55;24.20;46.90
51867;DHT22;52862;52.504;13.480;2023-04-06T14:15:22;25.70;44.10
51867;DHT22;52862;52.504;13.480;2023-04-06T14:17:49;25.60;43.90
51867;DHT22;52862;52.504;13.480;2023-04-06T14:20:18;25.50;43.80
51867;DHT22;52862;52.504;13.480;2023-04-06T14:22:45;25.00;42.90
51867;DHT22;52862;52.504;13.480;2023-04-06T14:25:12;23.60;44.50
51867;DHT22;52862;52.504;13.480;2023-04-06T14:27:39;23.30;44.70
51867;DHT22;52862;52.504;13.480;2023-04-06T14:30:07;22.30;45.70
51867;DHT22;52862;52.504;13.480;2023-04-06T14:32:34;22.00;46.30
51867;DHT22;52862;52.504;13.480;2023-04-06T14:35:02;20.90;46.90
51867;DHT22;52862;52.504;13.480;2023-04-06T14:37:30;19.20;49.30
51867;DHT22;52862;52.504;13.480;2023-04-06T14:39:57;20.80;50.80
51867;DHT22;52862;52.504;13.480;2023-04-06T14:42:24;21.30;49.50
51867;DHT22;52862;52.504;13.480;2023-04-06T14:44:51;23.80;45.50
51867;DHT22;52862;52.504;13.480;2023-04-06T14:47:19;24.90;43.20
51867;DHT22;52862;52.504;13.480;2023-04-06T14:49:49;23.80;43.70
51867;DHT22;52862;52.504;13.480;2023-04-06T14:52:16;23.00;43.50
51867;DHT22;52862;52.504;13.480;2023-04-06T14:54:52;22.10;44.40
51867;DHT22;52862;52.504;13.480;2023-04-06T14:57:19;21.70;46.00
51867;DHT22;52862;52.504;13.480;2023-04-06T14:59:46;22.40;45.40
51867;DHT22;52862;52.504;13.480;2023-04-06T15:02:12;23.70;44.20
51867;DHT22;52862;52.504;13.480;2023-04-06T15:04:39;24.30;43.00
51867;DHT22;52862;52.504;13.480;2023-04-06T15:07:06;23.20;43.80
51867;DHT22;52862;52.504;13.480;2023-04-06T15:09:35;23.10;43.50
51867;DHT22;52862;52.504;13.480;2023-04-06T15:12:03;23.70;42.80
51867;DHT22;52862;52.504;13.480;2023-04-06T15:14:30;25.30;42.00
51867;DHT22;52862;52.504;13.480;2023-04-06T15:16:56;24.60;41.50
51867;DHT22;52862;52.504;13.480;2023-04-06T15:19:23;23.90;41.60
51867;DHT22;52862;52.504;13.480;2023-04-06T15:21:50;22.30;43.30
51867;DHT22;52862;52.504;13.480;2023-04-06T15:24:20;19.80;46.50
51867;DHT22;52862;52.504;13.480;2023-04-06T15:26:47;16.60;51.10
51867;DHT22;52862;52.504;13.480;2023-04-06T15:29:14;15.00;54.20
51867;DHT22;52862;52.504;13.480;2023-04-06T15:31:40;14.00;56.20
51867;DHT22;52862;52.504;13.480;2023-04-06T15:34:07;13.60;58.20
51867;DHT22;52862;52.504;13.480;2023-04-06T15:36:35;12.80;58.90
51867;DHT22;52862;52.504;13.480;2023-04-06T15:39:03;12.40;60.20
51867;DHT22;52862;52.504;13.480;2023-04-06T15:41:30;12.30;60.50
51867;DHT22;52862;52.504;13.480;2023-04-06T15:43:57;12.20;60.90
51867;DHT22;52862;52.504;13.480;2023-04-06T15:46:24;12.20;61.20
51867;DHT22;52862;52.504;13.480;2023-04-06T15:48:52;11.40;60.70
51867;DHT22;52862;52.504;13.480;2023-04-06T15:51:19;12.10;61.40
51867;DHT22;52862;52.504;13.480;2023-04-06T15:53:46;12.10;62.60
51867;DHT22;52862;52.504;13.480;2023-04-06T15:56:12;12.00;62.90
51867;DHT22;52862;52.504;13.480;2023-04-06T15:58:40;11.90;62.50
51867;DHT22;52862;52.504;13.480;2023-04-06T16:01:12;11.80;63.20
51867;DHT22;52862;52.504;13.480;2023-04-06T16:03:39;11.40;63.30
51867;DHT22;52862;52.504;13.480;2023-04-06T16:06:06;11.70;64.00
51867;DHT22;52862;52.504;13.480;2023-04-06T16:08:35;11.60;64.10
51867;DHT22;52862;52.504;13.480;2023-04-06T16:11:03;11.70;63.50
51867;DHT22;52862;52.504;13.480;2023-04-06T16:13:29;12.30;64.10
51867;DHT22;52862;52.504;13.480;2023-04-06T16:15:56;11.70;63.50